Connexion S'enregistrer

Connexion à votre compte

Identifiant
Mot de passe
Maintenir la connexion active sur ce site

Créer un compte

Pour valider ce formulaire, vous devez remplir tous les champs.
Nom
Identifiant
Mot de passe
Répétez le mot de passe
Adresse e-mail
Répétez l'adresse e-mail

Compte tenue de la situation sanitaire et des recommendations gouvernementales, l'aéroclub de Savoie n'est pas ouvert aux personnes non adhérentes du club. 

Merci de nous contacter par téléphone avant tout déplacement préalable.

 

Les vols découverte sont suspendus jusqu'à nouvel ordre, mais leur vente reste disponible sur notre boutique en ligne (Paypal uniquement), ou par commande mail ou téléphone (tous moyens de paiement, dont ANCV). Les bons cadeau sont valables 1 an.

 

Vous avez un bon cadeau arrivant à expiration? N'hésitez pas à nous contacter.

Le secrétariat est ouvert du mercredi au samedi de 9h30 à 12h et de 13h30 à 17h. 

 

Merci

Nous contacter

 Téléphone : +33 (0)4 79 54 41 81

Coordonnées détaillées et accès : cliquez ici

 
LFLB °C
    Ferienhaus Ostsee
[source: ADDS]
METAR
LFLB 260700Z AUTO 16003KT CAVOK 01/01 Q1031 NOSIG =
TAF LFLB 260200Z 2603/2703 VRB03KT CAVOK PROB40 TEMPO 2603/2607 3000 MIFG BECMG 2616/2619 BKN050 PROB40 TEMPO 2623/2703 4000 SHRA SCT030TCU
TAF
TAF LFLB 260200Z 2603/2703 VRB03KT CAVOK PROB40 TEMPO 2603/2607 3000 MIFG BECMG 2616/2619 BKN050 PROB40 TEMPO 2623/2703 4000 SHRA SCT030TCU =
SR / SS: 06:19 / 17:18 UTC (Lever/Coucher du soleil le 2021-02-26)
JSN Boot template designed by JoomlaShine.com